sensor_id;sensor_type;location;lat;lon;timestamp;temperature;humidity
30381;DHT22;17169;50.966;11.038;2023-07-02T00:00:32;18.70;99.90
30381;DHT22;17169;50.966;11.038;2023-07-02T00:03:37;18.70;99.90
30381;DHT22;17169;50.966;11.038;2023-07-02T00:06:40;18.70;99.90
30381;DHT22;17169;50.966;11.038;2023-07-02T00:09:42;18.70;99.90
30381;DHT22;17169;50.966;11.038;2023-07-02T00:12:44;18.70;99.90
30381;DHT22;17169;50.966;11.038;2023-07-02T00:15:47;18.70;99.90
30381;DHT22;17169;50.966;11.038;2023-07-02T00:18:50;18.70;99.90
30381;DHT22;17169;50.966;11.038;2023-07-02T00:21:53;18.70;99.90
30381;DHT22;17169;50.966;11.038;2023-07-02T00:24:56;18.60;99.90
30381;DHT22;17169;50.966;11.038;2023-07-02T00:27:58;18.70;99.90
30381;DHT22;17169;50.966;11.038;2023-07-02T00:31:00;18.60;99.90
30381;DHT22;17169;50.966;11.038;2023-07-02T00:34:04;18.60;99.90
30381;DHT22;17169;50.966;11.038;2023-07-02T00:37:07;18.60;99.90
30381;DHT22;17169;50.966;11.038;2023-07-02T00:40:10;18.60;99.90
30381;DHT22;17169;50.966;11.038;2023-07-02T00:43:12;18.60;99.90
30381;DHT22;17169;50.966;11.038;2023-07-02T00:46:16;18.60;99.90
30381;DHT22;17169;50.966;11.038;2023-07-02T00:49:22;18.60;99.90
30381;DHT22;17169;50.966;11.038;2023-07-02T00:52:25;18.60;99.90
30381;DHT22;17169;50.966;11.038;2023-07-02T00:55:28;18.50;99.90
30381;DHT22;17169;50.966;11.038;2023-07-02T00:58:30;18.60;99.90
30381;DHT22;17169;50.966;11.038;2023-07-02T01:01:32;18.50;99.90
30381;DHT22;17169;50.966;11.038;2023-07-02T01:04:40;18.50;99.90
30381;DHT22;17169;50.966;11.038;2023-07-02T01:07:42;18.50;99.90
30381;DHT22;17169;50.966;11.038;2023-07-02T01:10:44;18.50;99.90
30381;DHT22;17169;50.966;11.038;2023-07-02T01:13:48;18.50;99.90
30381;DHT22;17169;50.966;11.038;2023-07-02T01:16:52;18.50;99.90
30381;DHT22;17169;50.966;11.038;2023-07-02T01:19:57;18.50;99.90
30381;DHT22;17169;50.966;11.038;2023-07-02T01:23:01;18.50;99.90
30381;DHT22;17169;50.966;11.038;2023-07-02T01:26:04;18.40;99.90
30381;DHT22;17169;50.966;11.038;2023-07-02T01:29:15;18.40;99.90
30381;DHT22;17169;50.966;11.038;2023-07-02T01:32:18;18.40;99.90
30381;DHT22;17169;50.966;11.038;2023-07-02T01:35:22;18.40;99.90
30381;DHT22;17169;50.966;11.038;2023-07-02T01:38:25;18.30;99.90
30381;DHT22;17169;50.966;11.038;2023-07-02T01:41:28;18.30;99.90
30381;DHT22;17169;50.966;11.038;2023-07-02T01:44:30;18.30;99.90
30381;DHT22;17169;50.966;11.038;2023-07-02T01:47:33;18.30;99.90
30381;DHT22;17169;50.966;11.038;2023-07-02T01:50:37;18.40;99.90
30381;DHT22;17169;50.966;11.038;2023-07-02T01:53:39;18.40;99.90
30381;DHT22;17169;50.966;11.038;2023-07-02T01:56:42;18.50;99.90
30381;DHT22;17169;50.966;11.038;2023-07-02T01:59:44;18.50;99.90
30381;DHT22;17169;50.966;11.038;2023-07-02T02:02:46;18.50;99.90
30381;DHT22;17169;50.966;11.038;2023-07-02T02:05:50;18.60;99.90
30381;DHT22;17169;50.966;11.038;2023-07-02T02:08:52;18.60;99.90
30381;DHT22;17169;50.966;11.038;2023-07-02T02:11:55;18.60;99.90
30381;DHT22;17169;50.966;11.038;2023-07-02T02:14:57;18.60;99.90
30381;DHT22;17169;50.966;11.038;2023-07-02T02:17:59;18.60;99.90
30381;DHT22;17169;50.966;11.038;2023-07-02T02:21:03;18.50;99.90
30381;DHT22;17169;50.966;11.038;2023-07-02T02:24:06;18.50;99.90
30381;DHT22;17169;50.966;11.038;2023-07-02T02:27:08;18.50;99.90
30381;DHT22;17169;50.966;11.038;2023-07-02T02:30:11;18.50;99.90
30381;DHT22;17169;50.966;11.038;2023-07-02T02:33:13;18.50;99.90
30381;DHT22;17169;50.966;11.038;2023-07-02T02:36:17;18.50;99.90
30381;DHT22;17169;50.966;11.038;2023-07-02T02:39:19;18.50;99.90
30381;DHT22;17169;50.966;11.038;2023-07-02T02:42:21;18.50;99.90
30381;DHT22;17169;50.966;11.038;2023-07-02T02:45:24;18.50;99.90
30381;DHT22;17169;50.966;11.038;2023-07-02T02:48:26;18.50;99.90
30381;DHT22;17169;50.966;11.038;2023-07-02T02:51:30;18.50;99.90
30381;DHT22;17169;50.966;11.038;2023-07-02T02:54:32;18.50;99.90
30381;DHT22;17169;50.966;11.038;2023-07-02T02:57:35;18.50;99.90
30381;DHT22;17169;50.966;11.038;2023-07-02T03:00:37;18.50;99.90
30381;DHT22;17169;50.966;11.038;2023-07-02T03:03:43;18.50;99.90
30381;DHT22;17169;50.966;11.038;2023-07-02T03:06:48;18.40;99.90
30381;DHT22;17169;50.966;11.038;2023-07-02T03:09:50;18.40;99.90
30381;DHT22;17169;50.966;11.038;2023-07-02T03:12:52;18.40;99.90
30381;DHT22;17169;50.966;11.038;2023-07-02T03:15:55;18.30;99.90
30381;DHT22;17169;50.966;11.038;2023-07-02T03:18:57;18.40;99.90
30381;DHT22;17169;50.966;11.038;2023-07-02T03:22:01;18.30;99.90
30381;DHT22;17169;50.966;11.038;2023-07-02T03:25:04;18.20;99.90
30381;DHT22;17169;50.966;11.038;2023-07-02T03:28:06;18.10;99.90
30381;DHT22;17169;50.966;11.038;2023-07-02T03:31:09;18.20;99.90
30381;DHT22;17169;50.966;11.038;2023-07-02T03:34:11;18.10;99.90
30381;DHT22;17169;50.966;11.038;2023-07-02T03:37:15;18.10;99.90
30381;DHT22;17169;50.966;11.038;2023-07-02T03:40:17;18.00;99.90
30381;DHT22;17169;50.966;11.038;2023-07-02T03:43:20;18.00;99.90
30381;DHT22;17169;50.966;11.038;2023-07-02T03:46:22;18.00;99.90
30381;DHT22;17169;50.966;11.038;2023-07-02T03:49:24;18.00;99.90
30381;DHT22;17169;50.966;11.038;2023-07-02T03:52:28;18.00;99.90
30381;DHT22;17169;50.966;11.038;2023-07-02T03:55:31;18.00;99.90
30381;DHT22;17169;50.966;11.038;2023-07-02T03:58:33;18.00;99.90
30381;DHT22;17169;50.966;11.038;2023-07-02T04:01:36;18.00;99.90
30381;DHT22;17169;50.966;11.038;2023-07-02T04:04:38;18.00;99.90
30381;DHT22;17169;50.966;11.038;2023-07-02T04:07:42;18.00;99.90
30381;DHT22;17169;50.966;11.038;2023-07-02T04:10:44;18.00;99.90
30381;DHT22;17169;50.966;11.038;2023-07-02T04:13:47;18.00;99.90
30381;DHT22;17169;50.966;11.038;2023-07-02T04:16:49;18.00;99.90
30381;DHT22;17169;50.966;11.038;2023-07-02T04:19:54;18.00;99.90
30381;DHT22;17169;50.966;11.038;2023-07-02T04:22:58;18.00;99.90
30381;DHT22;17169;50.966;11.038;2023-07-02T04:26:00;18.10;99.90
30381;DHT22;17169;50.966;11.038;2023-07-02T04:29:02;18.10;99.90
30381;DHT22;17169;50.966;11.038;2023-07-02T04:32:06;18.00;99.90
30381;DHT22;17169;50.966;11.038;2023-07-02T04:35:09;18.00;99.90
30381;DHT22;17169;50.966;11.038;2023-07-02T04:38:13;18.00;99.90
30381;DHT22;17169;50.966;11.038;2023-07-02T04:41:17;18.00;99.90
30381;DHT22;17169;50.966;11.038;2023-07-02T04:44:19;18.00;99.90
30381;DHT22;17169;50.966;11.038;2023-07-02T04:47:23;17.90;99.90
30381;DHT22;17169;50.966;11.038;2023-07-02T04:50:26;18.00;99.90
30381;DHT22;17169;50.966;11.038;2023-07-02T04:53:29;18.00;99.90
30381;DHT22;17169;50.966;11.038;2023-07-02T04:56:32;18.00;99.90
30381;DHT22;17169;50.966;11.038;2023-07-02T04:59:34;18.10;99.90
30381;DHT22;17169;50.966;11.038;2023-07-02T05:02:36;18.10;99.90
30381;DHT22;17169;50.966;11.038;2023-07-02T05:05:39;18.10;99.90
30381;DHT22;17169;50.966;11.038;2023-07-02T05:08:42;18.10;99.90
30381;DHT22;17169;50.966;11.038;2023-07-02T05:11:45;18.20;99.90
30381;DHT22;17169;50.966;11.038;2023-07-02T05:14:47;18.10;99.90
30381;DHT22;17169;50.966;11.038;2023-07-02T05:17:49;18.20;99.90
30381;DHT22;17169;50.966;11.038;2023-07-02T05:20:52;18.20;99.90
30381;DHT22;17169;50.966;11.038;2023-07-02T05:23:55;18.20;99.90
30381;DHT22;17169;50.966;11.038;2023-07-02T05:26:58;18.30;99.90
30381;DHT22;17169;50.966;11.038;2023-07-02T05:30:00;18.30;99.90
30381;DHT22;17169;50.966;11.038;2023-07-02T05:33:02;18.30;99.90
30381;DHT22;17169;50.966;11.038;2023-07-02T05:36:05;18.30;99.90
30381;DHT22;17169;50.966;11.038;2023-07-02T05:39:08;18.20;99.90
30381;DHT22;17169;50.966;11.038;2023-07-02T05:42:11;18.20;99.90
30381;DHT22;17169;50.966;11.038;2023-07-02T05:45:13;18.20;99.90
30381;DHT22;17169;50.966;11.038;2023-07-02T05:48:16;18.20;99.90
30381;DHT22;17169;50.966;11.038;2023-07-02T05:51:20;18.30;99.90
30381;DHT22;17169;50.966;11.038;2023-07-02T05:54:24;18.30;99.90
30381;DHT22;17169;50.966;11.038;2023-07-02T05:57:27;18.30;99.90
30381;DHT22;17169;50.966;11.038;2023-07-02T06:00:29;18.40;99.90
30381;DHT22;17169;50.966;11.038;2023-07-02T06:03:31;18.50;99.90
30381;DHT22;17169;50.966;11.038;2023-07-02T06:06:34;18.60;99.90
30381;DHT22;17169;50.966;11.038;2023-07-02T06:09:37;18.80;99.90
30381;DHT22;17169;50.966;11.038;2023-07-02T06:12:40;19.00;99.90
30381;DHT22;17169;50.966;11.038;2023-07-02T06:15:43;19.10;99.90
30381;DHT22;17169;50.966;11.038;2023-07-02T06:18:47;19.30;99.90
30381;DHT22;17169;50.966;11.038;2023-07-02T06:21:49;19.40;99.90
30381;DHT22;17169;50.966;11.038;2023-07-02T06:24:53;19.70;99.90
30381;DHT22;17169;50.966;11.038;2023-07-02T06:27:55;19.80;99.90
30381;DHT22;17169;50.966;11.038;2023-07-02T06:30:59;20.00;99.90
30381;DHT22;17169;50.966;11.038;2023-07-02T06:34:01;20.10;99.90
30381;DHT22;17169;50.966;11.038;2023-07-02T06:37:04;20.30;99.90
30381;DHT22;17169;50.966;11.038;2023-07-02T06:40:09;20.40;99.90
30381;DHT22;17169;50.966;11.038;2023-07-02T06:43:11;20.40;99.90
30381;DHT22;17169;50.966;11.038;2023-07-02T06:46:14;20.30;99.90
30381;DHT22;17169;50.966;11.038;2023-07-02T06:49:16;20.30;99.90
30381;DHT22;17169;50.966;11.038;2023-07-02T06:52:19;20.20;99.90
30381;DHT22;17169;50.966;11.038;2023-07-02T06:55:22;20.10;99.90
30381;DHT22;17169;50.966;11.038;2023-07-02T06:58:25;19.90;99.90
30381;DHT22;17169;50.966;11.038;2023-07-02T07:01:27;19.80;99.90
30381;DHT22;17169;50.966;11.038;2023-07-02T07:04:30;19.90;99.90
30381;DHT22;17169;50.966;11.038;2023-07-02T07:07:32;20.00;99.90
30381;DHT22;17169;50.966;11.038;2023-07-02T07:10:36;20.20;99.90
30381;DHT22;17169;50.966;11.038;2023-07-02T07:13:38;20.40;99.90
30381;DHT22;17169;50.966;11.038;2023-07-02T07:16:41;20.60;99.90
30381;DHT22;17169;50.966;11.038;2023-07-02T07:19:43;20.70;99.90
30381;DHT22;17169;50.966;11.038;2023-07-02T07:22:45;20.90;99.90
30381;DHT22;17169;50.966;11.038;2023-07-02T07:25:49;21.10;99.90
30381;DHT22;17169;50.966;11.038;2023-07-02T07:28:51;20.90;99.80
30381;DHT22;17169;50.966;11.038;2023-07-02T07:31:55;20.80;99.90
30381;DHT22;17169;50.966;11.038;2023-07-02T07:34:57;20.80;99.90
30381;DHT22;17169;50.966;11.038;2023-07-02T07:38:00;20.90;99.90
30381;DHT22;17169;50.966;11.038;2023-07-02T07:41:03;20.80;99.90
30381;DHT22;17169;50.966;11.038;2023-07-02T07:44:06;20.70;99.90
30381;DHT22;17169;50.966;11.038;2023-07-02T07:47:08;20.70;99.90
30381;DHT22;17169;50.966;11.038;2023-07-02T07:50:10;20.80;99.90
30381;DHT22;17169;50.966;11.038;2023-07-02T07:53:13;20.80;99.90
30381;DHT22;17169;50.966;11.038;2023-07-02T07:56:17;20.80;99.90
30381;DHT22;17169;50.966;11.038;2023-07-02T07:59:19;20.90;99.70
30381;DHT22;17169;50.966;11.038;2023-07-02T08:02:21;20.90;99.10
30381;DHT22;17169;50.966;11.038;2023-07-02T08:05:24;21.00;99.20
30381;DHT22;17169;50.966;11.038;2023-07-02T08:08:26;21.00;99.10
30381;DHT22;17169;50.966;11.038;2023-07-02T08:11:30;21.00;99.20
30381;DHT22;17169;50.966;11.038;2023-07-02T08:14:33;21.10;99.60
30381;DHT22;17169;50.966;11.038;2023-07-02T08:17:36;21.10;98.70
30381;DHT22;17169;50.966;11.038;2023-07-02T08:20:38;21.00;98.20
30381;DHT22;17169;50.966;11.038;2023-07-02T08:23:42;21.10;98.30
30381;DHT22;17169;50.966;11.038;2023-07-02T08:26:46;21.20;97.70
30381;DHT22;17169;50.966;11.038;2023-07-02T08:29:50;21.20;97.90
30381;DHT22;17169;50.966;11.038;2023-07-02T08:32:52;21.10;97.90
30381;DHT22;17169;50.966;11.038;2023-07-02T08:35:55;21.20;98.00
30381;DHT22;17169;50.966;11.038;2023-07-02T08:38:58;21.40;98.20
30381;DHT22;17169;50.966;11.038;2023-07-02T08:42:02;21.40;97.00
30381;DHT22;17169;50.966;11.038;2023-07-02T08:45:05;21.60;96.90
30381;DHT22;17169;50.966;11.038;2023-07-02T08:48:08;21.60;97.20
30381;DHT22;17169;50.966;11.038;2023-07-02T08:51:11;21.70;97.00
30381;DHT22;17169;50.966;11.038;2023-07-02T08:54:14;21.80;97.00
30381;DHT22;17169;50.966;11.038;2023-07-02T08:57:17;22.00;97.00
30381;DHT22;17169;50.966;11.038;2023-07-02T09:00:20;22.10;96.50
30381;DHT22;17169;50.966;11.038;2023-07-02T09:03:25;22.40;96.50
30381;DHT22;17169;50.966;11.038;2023-07-02T09:06:28;22.50;96.00
30381;DHT22;17169;50.966;11.038;2023-07-02T09:09:30;22.70;95.90
30381;DHT22;17169;50.966;11.038;2023-07-02T09:12:34;22.90;95.50
30381;DHT22;17169;50.966;11.038;2023-07-02T09:15:38;22.80;95.30
30381;DHT22;17169;50.966;11.038;2023-07-02T09:18:40;23.00;94.90
30381;DHT22;17169;50.966;11.038;2023-07-02T09:21:44;23.00;94.40
30381;DHT22;17169;50.966;11.038;2023-07-02T09:24:51;23.20;93.50
30381;DHT22;17169;50.966;11.038;2023-07-02T09:27:55;23.20;92.90
30381;DHT22;17169;50.966;11.038;2023-07-02T09:30:58;23.20;92.90
30381;DHT22;17169;50.966;11.038;2023-07-02T09:34:03;23.00;93.20
30381;DHT22;17169;50.966;11.038;2023-07-02T09:37:06;22.80;92.70
30381;DHT22;17169;50.966;11.038;2023-07-02T09:40:09;22.60;93.30
30381;DHT22;17169;50.966;11.038;2023-07-02T09:43:13;22.70;93.30
30381;DHT22;17169;50.966;11.038;2023-07-02T09:46:16;22.60;92.90
30381;DHT22;17169;50.966;11.038;2023-07-02T09:49:20;22.40;92.80
30381;DHT22;17169;50.966;11.038;2023-07-02T09:52:26;22.30;93.30
30381;DHT22;17169;50.966;11.038;2023-07-02T09:55:28;22.40;93.50
30381;DHT22;17169;50.966;11.038;2023-07-02T09:58:32;22.40;93.80
30381;DHT22;17169;50.966;11.038;2023-07-02T10:01:35;22.40;93.60
30381;DHT22;17169;50.966;11.038;2023-07-02T10:04:42;22.40;93.70
30381;DHT22;17169;50.966;11.038;2023-07-02T10:07:45;22.30;93.60
30381;DHT22;17169;50.966;11.038;2023-07-02T10:10:48;22.20;93.40
30381;DHT22;17169;50.966;11.038;2023-07-02T10:13:59;22.20;93.60
30381;DHT22;17169;50.966;11.038;2023-07-02T10:17:01;22.30;93.00
30381;DHT22;17169;50.966;11.038;2023-07-02T10:20:05;22.40;93.10
30381;DHT22;17169;50.966;11.038;2023-07-02T10:23:09;22.50;92.70
30381;DHT22;17169;50.966;11.038;2023-07-02T10:26:16;22.60;92.50
30381;DHT22;17169;50.966;11.038;2023-07-02T10:29:21;22.60;92.70
30381;DHT22;17169;50.966;11.038;2023-07-02T10:32:27;22.60;92.80
30381;DHT22;17169;50.966;11.038;2023-07-02T10:35:33;22.60;92.10
30381;DHT22;17169;50.966;11.038;2023-07-02T10:38:36;22.70;92.80
30381;DHT22;17169;50.966;11.038;2023-07-02T10:41:38;22.90;92.60
30381;DHT22;17169;50.966;11.038;2023-07-02T10:44:50;22.90;91.70
30381;DHT22;17169;50.966;11.038;2023-07-02T10:47:52;23.00;92.00
30381;DHT22;17169;50.966;11.038;2023-07-02T10:50:54;23.10;92.10
30381;DHT22;17169;50.966;11.038;2023-07-02T10:53:57;23.40;91.90
30381;DHT22;17169;50.966;11.038;2023-07-02T10:57:00;23.50;91.70
30381;DHT22;17169;50.966;11.038;2023-07-02T11:00:06;23.40;91.70
30381;DHT22;17169;50.966;11.038;2023-07-02T11:03:16;23.30;91.30
30381;DHT22;17169;50.966;11.038;2023-07-02T11:06:20;23.40;91.60
30381;DHT22;17169;50.966;11.038;2023-07-02T11:09:22;23.20;91.50
30381;DHT22;17169;50.966;11.038;2023-07-02T11:12:28;23.10;91.40
30381;DHT22;17169;50.966;11.038;2023-07-02T11:15:36;22.90;91.30
30381;DHT22;17169;50.966;11.038;2023-07-02T11:18:39;22.90;91.40
30381;DHT22;17169;50.966;11.038;2023-07-02T11:21:51;22.90;91.40
30381;DHT22;17169;50.966;11.038;2023-07-02T11:24:53;23.10;91.10
30381;DHT22;17169;50.966;11.038;2023-07-02T11:28:02;23.30;91.30
30381;DHT22;17169;50.966;11.038;2023-07-02T11:31:06;23.60;90.10
30381;DHT22;17169;50.966;11.038;2023-07-02T11:34:13;23.90;88.00
30381;DHT22;17169;50.966;11.038;2023-07-02T11:37:16;24.00;88.40
30381;DHT22;17169;50.966;11.038;2023-07-02T11:40:19;24.00;89.20
30381;DHT22;17169;50.966;11.038;2023-07-02T11:43:22;23.90;88.50
30381;DHT22;17169;50.966;11.038;2023-07-02T11:46:25;23.80;88.30
30381;DHT22;17169;50.966;11.038;2023-07-02T11:49:28;23.60;89.20
30381;DHT22;17169;50.966;11.038;2023-07-02T11:52:30;23.70;90.10
30381;DHT22;17169;50.966;11.038;2023-07-02T11:55:33;24.00;89.10
30381;DHT22;17169;50.966;11.038;2023-07-02T11:58:35;24.30;86.60
30381;DHT22;17169;50.966;11.038;2023-07-02T12:01:39;24.30;86.00
30381;DHT22;17169;50.966;11.038;2023-07-02T12:04:41;24.30;86.20
30381;DHT22;17169;50.966;11.038;2023-07-02T12:07:43;24.30;87.10
30381;DHT22;17169;50.966;11.038;2023-07-02T12:10:46;24.20;86.60
30381;DHT22;17169;50.966;11.038;2023-07-02T12:13:48;23.90;86.60
30381;DHT22;17169;50.966;11.038;2023-07-02T12:16:52;23.80;85.90
30381;DHT22;17169;50.966;11.038;2023-07-02T12:19:54;23.90;86.60
30381;DHT22;17169;50.966;11.038;2023-07-02T12:22:57;24.00;85.60
30381;DHT22;17169;50.966;11.038;2023-07-02T12:25:59;24.30;86.10
30381;DHT22;17169;50.966;11.038;2023-07-02T12:29:01;24.40;83.60
30381;DHT22;17169;50.966;11.038;2023-07-02T12:32:07;24.70;84.40
30381;DHT22;17169;50.966;11.038;2023-07-02T12:35:09;24.80;84.10
30381;DHT22;17169;50.966;11.038;2023-07-02T12:38:12;24.90;84.40
30381;DHT22;17169;50.966;11.038;2023-07-02T12:41:15;25.00;84.90
30381;DHT22;17169;50.966;11.038;2023-07-02T12:44:17;24.70;83.10
30381;DHT22;17169;50.966;11.038;2023-07-02T12:47:21;24.70;84.30
30381;DHT22;17169;50.966;11.038;2023-07-02T12:50:23;24.70;83.30
30381;DHT22;17169;50.966;11.038;2023-07-02T12:53:26;24.70;83.80
30381;DHT22;17169;50.966;11.038;2023-07-02T12:56:29;24.40;83.60
30381;DHT22;17169;50.966;11.038;2023-07-02T12:59:31;24.00;84.20
30381;DHT22;17169;50.966;11.038;2023-07-02T13:02:35;23.80;85.20
30381;DHT22;17169;50.966;11.038;2023-07-02T13:05:37;23.60;85.70
30381;DHT22;17169;50.966;11.038;2023-07-02T13:08:40;23.50;85.90
30381;DHT22;17169;50.966;11.038;2023-07-02T13:11:43;23.40;86.70
30381;DHT22;17169;50.966;11.038;2023-07-02T13:14:45;23.30;87.80
30381;DHT22;17169;50.966;11.038;2023-07-02T13:17:49;23.30;88.20
30381;DHT22;17169;50.966;11.038;2023-07-02T13:20:52;23.80;87.80
30381;DHT22;17169;50.966;11.038;2023-07-02T13:23:54;23.90;86.60
30381;DHT22;17169;50.966;11.038;2023-07-02T13:26:56;24.00;86.70
30381;DHT22;17169;50.966;11.038;2023-07-02T13:29:59;24.00;86.60
30381;DHT22;17169;50.966;11.038;2023-07-02T13:33:03;23.90;86.60
30381;DHT22;17169;50.966;11.038;2023-07-02T13:36:05;23.80;87.40
30381;DHT22;17169;50.966;11.038;2023-07-02T13:39:07;23.80;86.40
30381;DHT22;17169;50.966;11.038;2023-07-02T13:42:10;23.70;87.10
30381;DHT22;17169;50.966;11.038;2023-07-02T13:45:12;23.60;87.10
30381;DHT22;17169;50.966;11.038;2023-07-02T13:48:16;24.20;87.20
30381;DHT22;17169;50.966;11.038;2023-07-02T13:51:18;24.70;85.40
30381;DHT22;17169;50.966;11.038;2023-07-02T13:54:21;25.00;82.00
30381;DHT22;17169;50.966;11.038;2023-07-02T13:57:24;25.40;82.60
30381;DHT22;17169;50.966;11.038;2023-07-02T14:00:28;25.30;81.10
30381;DHT22;17169;50.966;11.038;2023-07-02T14:03:30;25.50;81.60
30381;DHT22;17169;50.966;11.038;2023-07-02T14:06:33;26.20;81.40
30381;DHT22;17169;50.966;11.038;2023-07-02T14:09:35;26.40;78.90
30381;DHT22;17169;50.966;11.038;2023-07-02T14:12:38;26.60;77.90
30381;DHT22;17169;50.966;11.038;2023-07-02T14:15:42;26.70;76.90
30381;DHT22;17169;50.966;11.038;2023-07-02T14:18:44;27.80;75.80
30381;DHT22;17169;50.966;11.038;2023-07-02T14:21:47;27.90;74.80
30381;DHT22;17169;50.966;11.038;2023-07-02T14:24:50;28.00;73.30
30381;DHT22;17169;50.966;11.038;2023-07-02T14:27:52;27.90;74.70
30381;DHT22;17169;50.966;11.038;2023-07-02T14:31:00;28.90;72.90
30381;DHT22;17169;50.966;11.038;2023-07-02T14:34:02;28.50;71.70
30381;DHT22;17169;50.966;11.038;2023-07-02T14:37:05;27.90;72.40
30381;DHT22;17169;50.966;11.038;2023-07-02T14:40:09;27.40;73.50
30381;DHT22;17169;50.966;11.038;2023-07-02T14:43:11;27.40;73.50
30381;DHT22;17169;50.966;11.038;2023-07-02T14:46:15;27.30;73.70
30381;DHT22;17169;50.966;11.038;2023-07-02T14:49:17;27.60;73.10
30381;DHT22;17169;50.966;11.038;2023-07-02T14:52:20;28.20;73.80
30381;DHT22;17169;50.966;11.038;2023-07-02T14:55:22;28.60;72.50
30381;DHT22;17169;50.966;11.038;2023-07-02T14:58:25;28.90;69.80
30381;DHT22;17169;50.966;11.038;2023-07-02T15:01:29;28.50;70.60
30381;DHT22;17169;50.966;11.038;2023-07-02T15:04:32;29.50;69.30
30381;DHT22;17169;50.966;11.038;2023-07-02T15:07:34;29.60;68.60
30381;DHT22;17169;50.966;11.038;2023-07-02T15:10:36;28.70;69.00
30381;DHT22;17169;50.966;11.038;2023-07-02T15:13:40;28.00;70.20
30381;DHT22;17169;50.966;11.038;2023-07-02T15:16:44;27.20;71.20
30381;DHT22;17169;50.966;11.038;2023-07-02T15:19:46;26.90;71.90
30381;DHT22;17169;50.966;11.038;2023-07-02T15:22:49;26.40;73.00
30381;DHT22;17169;50.966;11.038;2023-07-02T15:25:51;26.70;73.20
30381;DHT22;17169;50.966;11.038;2023-07-02T15:28:54;26.10;74.30
30381;DHT22;17169;50.966;11.038;2023-07-02T15:31:58;25.50;74.70
30381;DHT22;17169;50.966;11.038;2023-07-02T15:35:00;25.30;75.50
30381;DHT22;17169;50.966;11.038;2023-07-02T15:38:02;25.00;76.20
30381;DHT22;17169;50.966;11.038;2023-07-02T15:41:07;25.10;76.40
30381;DHT22;17169;50.966;11.038;2023-07-02T15:44:10;25.10;77.10
30381;DHT22;17169;50.966;11.038;2023-07-02T15:47:14;25.10;76.50
30381;DHT22;17169;50.966;11.038;2023-07-02T15:50:17;25.70;77.60
30381;DHT22;17169;50.966;11.038;2023-07-02T15:53:19;25.60;75.80
30381;DHT22;17169;50.966;11.038;2023-07-02T15:56:22;25.30;75.70
30381;DHT22;17169;50.966;11.038;2023-07-02T15:59:24;25.10;76.10
30381;DHT22;17169;50.966;11.038;2023-07-02T16:02:28;26.00;76.30
30381;DHT22;17169;50.966;11.038;2023-07-02T16:05:36;26.70;74.40
30381;DHT22;17169;50.966;11.038;2023-07-02T16:08:38;26.30;74.20
30381;DHT22;17169;50.966;11.038;2023-07-02T16:11:41;25.90;74.50
30381;DHT22;17169;50.966;11.038;2023-07-02T16:14:43;25.60;75.40
30381;DHT22;17169;50.966;11.038;2023-07-02T16:17:48;25.50;75.90
30381;DHT22;17169;50.966;11.038;2023-07-02T16:20:57;25.70;76.20
30381;DHT22;17169;50.966;11.038;2023-07-02T16:23:59;26.30;74.70
30381;DHT22;17169;50.966;11.038;2023-07-02T16:27:06;27.40;74.00
30381;DHT22;17169;50.966;11.038;2023-07-02T16:30:11;27.80;71.90
30381;DHT22;17169;50.966;11.038;2023-07-02T16:33:15;27.00;72.60
30381;DHT22;17169;50.966;11.038;2023-07-02T16:36:18;26.40;73.30
30381;DHT22;17169;50.966;11.038;2023-07-02T16:39:21;26.70;74.70
30381;DHT22;17169;50.966;11.038;2023-07-02T16:42:24;27.70;72.10
30381;DHT22;17169;50.966;11.038;2023-07-02T16:45:26;29.00;71.70
30381;DHT22;17169;50.966;11.038;2023-07-02T16:48:30;31.70;67.90
30381;DHT22;17169;50.966;11.038;2023-07-02T16:51:33;33.80;65.50
30381;DHT22;17169;50.966;11.038;2023-07-02T16:54:40;35.20;60.90
30381;DHT22;17169;50.966;11.038;2023-07-02T16:57:42;34.80;59.40
30381;DHT22;17169;50.966;11.038;2023-07-02T17:00:45;34.10;58.20
30381;DHT22;17169;50.966;11.038;2023-07-02T17:03:49;34.00;57.90
30381;DHT22;17169;50.966;11.038;2023-07-02T17:06:53;33.00;59.20
30381;DHT22;17169;50.966;11.038;2023-07-02T17:09:55;34.00;57.50
30381;DHT22;17169;50.966;11.038;2023-07-02T17:12:58;35.20;57.70
30381;DHT22;17169;50.966;11.038;2023-07-02T17:16:01;36.60;56.60
30381;DHT22;17169;50.966;11.038;2023-07-02T17:19:05;34.90;53.40
30381;DHT22;17169;50.966;11.038;2023-07-02T17:22:09;32.90;55.50
30381;DHT22;17169;50.966;11.038;2023-07-02T17:25:12;31.70;56.50
30381;DHT22;17169;50.966;11.038;2023-07-02T17:28:14;30.40;57.60
30381;DHT22;17169;50.966;11.038;2023-07-02T17:31:18;29.30;59.00
30381;DHT22;17169;50.966;11.038;2023-07-02T17:34:24;28.80;59.80
30381;DHT22;17169;50.966;11.038;2023-07-02T17:37:27;27.90;60.90
30381;DHT22;17169;50.966;11.038;2023-07-02T17:40:29;27.20;62.20
30381;DHT22;17169;50.966;11.038;2023-07-02T17:43:33;26.60;63.60
30381;DHT22;17169;50.966;11.038;2023-07-02T17:46:35;26.10;64.30
30381;DHT22;17169;50.966;11.038;2023-07-02T17:49:41;25.60;65.20
30381;DHT22;17169;50.966;11.038;2023-07-02T17:52:44;25.40;66.10
30381;DHT22;17169;50.966;11.038;2023-07-02T17:55:47;24.90;66.50
30381;DHT22;17169;50.966;11.038;2023-07-02T17:58:51;24.30;67.50
30381;DHT22;17169;50.966;11.038;2023-07-02T18:01:54;24.10;68.20
30381;DHT22;17169;50.966;11.038;2023-07-02T18:04:57;23.90;68.80
30381;DHT22;17169;50.966;11.038;2023-07-02T18:08:00;23.70;69.40
30381;DHT22;17169;50.966;11.038;2023-07-02T18:11:02;23.60;70.10
30381;DHT22;17169;50.966;11.038;2023-07-02T18:14:05;23.30;70.50
30381;DHT22;17169;50.966;11.038;2023-07-02T18:17:08;23.20;71.30
30381;DHT22;17169;50.966;11.038;2023-07-02T18:20:12;23.10;71.90
30381;DHT22;17169;50.966;11.038;2023-07-02T18:23:16;22.90;72.20
30381;DHT22;17169;50.966;11.038;2023-07-02T18:26:18;22.80;73.00
30381;DHT22;17169;50.966;11.038;2023-07-02T18:29:21;22.70;73.50
30381;DHT22;17169;50.966;11.038;2023-07-02T18:32:23;22.60;73.80
30381;DHT22;17169;50.966;11.038;2023-07-02T18:35:34;22.50;74.10
30381;DHT22;17169;50.966;11.038;2023-07-02T18:38:37;22.40;74.80
30381;DHT22;17169;50.966;11.038;2023-07-02T18:41:39;22.30;75.20
30381;DHT22;17169;50.966;11.038;2023-07-02T18:44:41;22.20;75.80
30381;DHT22;17169;50.966;11.038;2023-07-02T18:47:44;22.10;76.10
30381;DHT22;17169;50.966;11.038;2023-07-02T18:50:48;22.00;76.60
30381;DHT22;17169;50.966;11.038;2023-07-02T18:53:50;21.90;77.00
30381;DHT22;17169;50.966;11.038;2023-07-02T18:56:52;21.80;77.60